Aérodrome :
LOGIN :

S'inscrire | Disclaimer

   EN    FR    IT 

 










Légende :    VFR   VFR Marginal   IFR   IFR Intensif   IFR Très Intensif
Visi : 
Plafond : 
>= 8 km
>= 3000ft
5 à 8 km
1000 à 3000 ft
1500m à 5 km
500 à 1000 ft
800 à 1500m
200 à 500 ft
< 800m
< 200 ft
Symboles :   Orages  Brouillard  Fortes neiges  Fortes précipitations  Vent > 20 kt
SIGMETs :   Divers  Orages  Givrage  Turbulence  Onde Orograph.  Cendres Volcan.






- Altitude de l'aérodrome : 1363 ft


ETIC - Grafenwohr Army Air Field

DERNIER METAR :
  • 090956Z AUTO 00000KT 9999 SCT032 OVC044 00/M02 A3004 RMK AO2 SLP199 T10021021 $

METARs EXPIRÉS :
  • 090856Z AUTO 00000KT 9999 FEW023 SCT029 SCT039 OVC048 M01/M03 A3005 RMK AO2 SLP202 T10121026 50002 $
  • 090826Z AUTO 00000KT 9999 BKN027 OVC044 M02/M04 A3005 RMK AO2 CIG 027V044 SLP202 $
  • 090756Z AUTO 00000KT 9999 OVC032 M03/M04 A3005 RMK AO2 SLP204 T10311042 $

TAF TAF ETIC
Valide du 09 à 10h jusqu'au 10 à 16h UTC


091000Z 0910/1016 VRB03KT 9999 BKN030 OVC045 620306 QNH3003INS
BECMG 0921/0922 23005KT 8000 -SN BKN005 OVC010 650059 QNH3002INS
BECMG 1005/1006 29006KT 8000 -RASN BKN005 OVC010 650059 QNH3006INS
BECMG 1013/1014 28006KT 9999 NSW BKN020 OVC035 620207 QNH3008INS TX03/0912Z TN00/0918Z



MET'MAP, la Météo Aéronautique d'un coup d'oeil ! - Copyright ORBIFLY Décembre 2007 - Disclaimer

ORBIFLY MET'MAP TEAM :

Programmation & Développement : Alexandra Zaïnal
Sur une idée originale de : Baudouin d'Aumeries
Assistance à la programmation : Marc-Olivier Méhu
Soutien technique & logistique : Manuel Goepfert

Contact : metmap@orbifly.com




SOURCES & CREDITS :

   NOAA